createdAt,value
2018-12-21T00:01:14.669Z,95.65
2018-12-21T00:03:43.169Z,94.93
2018-12-21T00:06:11.655Z,95.05
2018-12-21T00:08:40.270Z,94.75
2018-12-21T00:11:08.960Z,95.05
2018-12-21T00:13:37.401Z,94.62
2018-12-21T00:16:05.945Z,94.86
2018-12-21T00:18:34.482Z,93.81
2018-12-21T00:21:03.692Z,93.71
2018-12-21T00:23:34.579Z,94.42
2018-12-21T00:26:03.094Z,94.29
2018-12-21T00:28:31.513Z,94.51
2018-12-21T00:31:06.481Z,94.88
2018-12-21T00:33:40.915Z,94.83
2018-12-21T00:36:15.656Z,94.69
2018-12-21T00:38:49.568Z,94.70
2018-12-21T00:41:17.226Z,94.72
2018-12-21T00:43:51.797Z,94.42
2018-12-21T00:46:32.550Z,94.44
2018-12-21T00:49:01.185Z,95.02
2018-12-21T00:51:30.596Z,95.03
2018-12-21T00:54:04.539Z,95.47
2018-12-21T00:56:45.049Z,95.57
2018-12-21T00:59:13.522Z,94.37
2018-12-21T01:01:42.660Z,94.08
2018-12-21T01:04:11.271Z,94.60
2018-12-21T01:06:40.833Z,93.82
2018-12-21T01:09:10.056Z,94.02
2018-12-21T01:11:38.518Z,94.38
2018-12-21T01:14:07.023Z,94.50
2018-12-21T01:16:35.614Z,94.63
2018-12-21T01:19:04.086Z,94.44
2018-12-21T01:21:38.727Z,94.77
2018-12-21T01:24:03.984Z,94.11
2018-12-21T01:26:32.669Z,94.69
2018-12-21T01:29:01.222Z,94.60
2018-12-21T01:31:29.862Z,94.55
2018-12-21T01:33:58.359Z,94.16
2018-12-21T01:36:26.905Z,94.85
2018-12-21T01:38:56.130Z,94.99
2018-12-21T01:41:24.874Z,94.87
2018-12-21T01:43:54.033Z,94.73
2018-12-21T01:46:22.565Z,95.02
2018-12-21T01:48:51.080Z,95.20
2018-12-21T01:51:19.582Z,95.59
2018-12-21T01:53:49.048Z,94.62
2018-12-21T01:56:18.023Z,94.64
2018-12-21T01:58:47.667Z,94.54
2018-12-21T02:01:16.191Z,94.69
2018-12-21T02:03:44.739Z,94.91
2018-12-21T02:06:14.280Z,94.80
2018-12-21T02:08:42.883Z,94.40
2018-12-21T02:11:11.444Z,94.34
2018-12-21T02:13:40.089Z,94.24
2018-12-21T02:16:08.660Z,94.16
2018-12-21T02:18:37.175Z,93.57
2018-12-21T02:21:05.747Z,94.09
2018-12-21T02:23:34.865Z,94.64
2018-12-21T02:26:03.612Z,94.12
2018-12-21T02:28:32.096Z,94.49
2018-12-21T02:31:01.286Z,94.40
2018-12-21T02:33:29.807Z,94.13
2018-12-21T02:35:58.296Z,94.17
2018-12-21T02:38:26.807Z,95.55
2018-12-21T02:40:56.101Z,95.05
2018-12-21T02:43:24.597Z,94.50
2018-12-21T02:45:54.912Z,94.51
2018-12-21T02:48:23.447Z,95.04
2018-12-21T02:50:52.066Z,94.58
2018-12-21T02:53:20.651Z,94.06
2018-12-21T02:55:49.197Z,94.18
2018-12-21T02:58:17.756Z,94.22
2018-12-21T03:00:46.297Z,93.67
2018-12-21T03:03:15.554Z,93.72
2018-12-21T03:05:44.095Z,93.52
2018-12-21T03:08:12.941Z,93.25
2018-12-21T03:10:41.428Z,93.59
2018-12-21T03:13:10.985Z,93.50
2018-12-21T03:15:39.704Z,93.48
2018-12-21T03:18:08.357Z,92.88
2018-12-21T03:20:38.014Z,92.00
2018-12-21T03:23:06.547Z,92.50
2018-12-21T03:25:35.773Z,92.40
2018-12-21T03:28:04.260Z,92.21
2018-12-21T03:30:33.423Z,92.22
2018-12-21T03:33:02.095Z,92.61
2018-12-21T03:35:30.978Z,92.50
2018-12-21T03:37:59.530Z,91.83
2018-12-21T03:40:28.130Z,92.41
2018-12-21T03:42:56.770Z,91.71
2018-12-21T03:45:25.265Z,92.16
2018-12-21T03:47:55.327Z,91.47
2018-12-21T03:50:23.980Z,91.86
2018-12-21T03:52:52.444Z,91.08
2018-12-21T03:55:20.984Z,90.38
2018-12-21T03:57:49.553Z,90.57
2018-12-21T04:00:20.045Z,90.66
2018-12-21T04:02:50.202Z,90.78
2018-12-21T04:05:18.815Z,90.83
2018-12-21T04:07:48.720Z,90.35
2018-12-21T04:10:17.946Z,90.71
2018-12-21T04:12:46.506Z,91.32
2018-12-21T04:15:14.948Z,90.91
2018-12-21T04:17:43.452Z,91.54
2018-12-21T04:20:12.658Z,91.80
2018-12-21T04:22:41.176Z,92.82
2018-12-21T04:25:09.966Z,93.74
2018-12-21T04:27:39.478Z,93.92
2018-12-21T04:30:09.303Z,94.49
2018-12-21T04:32:37.934Z,93.82
2018-12-21T04:35:06.429Z,94.49
2018-12-21T04:37:35.337Z,94.61
2018-12-21T04:40:03.902Z,95.50
2018-12-21T04:42:32.478Z,95.79
2018-12-21T04:45:01.033Z,95.51
2018-12-21T04:47:29.506Z,96.72
2018-12-21T04:49:58.403Z,96.50
2018-12-21T04:52:26.973Z,97.96
2018-12-21T04:54:55.532Z,98.00
2018-12-21T04:57:24.909Z,97.79
2018-12-21T04:59:53.525Z,97.72
2018-12-21T05:02:22.017Z,97.62
2018-12-21T05:04:50.686Z,97.82
2018-12-21T05:07:19.891Z,97.56
2018-12-21T05:09:48.557Z,97.07
2018-12-21T05:12:17.039Z,96.92
2018-12-21T05:14:45.559Z,96.93
2018-12-21T05:17:14.816Z,97.30
2018-12-21T05:19:43.388Z,96.96
2018-12-21T05:22:13.902Z,97.80
2018-12-21T05:24:42.529Z,97.62
2018-12-21T05:27:11.016Z,97.86
2018-12-21T05:29:39.887Z,98.10
2018-12-21T05:32:08.732Z,98.49
2018-12-21T05:34:37.457Z,97.82
2018-12-21T05:37:05.966Z,97.20
2018-12-21T05:39:34.742Z,97.63
2018-12-21T05:42:03.699Z,98.05
2018-12-21T05:44:32.257Z,98.52
2018-12-21T05:47:00.723Z,98.05
2018-12-21T05:49:29.252Z,98.38
2018-12-21T05:51:57.730Z,98.51
2018-12-21T05:54:26.331Z,98.59
2018-12-21T05:56:54.929Z,99.00
2018-12-21T05:59:23.537Z,98.63
2018-12-21T06:01:52.032Z,98.57
2018-12-21T06:04:20.792Z,98.30
2018-12-21T06:06:49.407Z,98.17
2018-12-21T06:09:18.002Z,98.35
2018-12-21T06:11:46.440Z,97.72
2018-12-21T06:14:17.786Z,97.98
2018-12-21T06:16:47.031Z,98.00
2018-12-21T06:19:22.718Z,99.06
2018-12-21T06:22:00.811Z,98.71
2018-12-21T06:24:39.836Z,98.92
2018-12-21T06:27:09.977Z,98.30
2018-12-21T06:29:44.182Z,97.97
2018-12-21T06:32:14.125Z,98.27
2018-12-21T06:34:50.694Z,98.20
2018-12-21T06:37:19.834Z,98.21
2018-12-21T06:39:50.700Z,98.68
2018-12-21T06:42:20.024Z,98.70
2018-12-21T06:44:48.867Z,98.60
2018-12-21T06:47:17.372Z,99.20
2018-12-21T06:49:47.659Z,98.21
2018-12-21T06:52:16.875Z,98.10
2018-12-21T06:54:46.406Z,98.41
2018-12-21T06:57:16.546Z,98.55
2018-12-21T06:59:45.282Z,98.61
2018-12-21T07:02:13.914Z,98.39
2018-12-21T07:04:42.505Z,98.23
2018-12-21T07:07:11.350Z,98.41
2018-12-21T07:09:40.632Z,98.66
2018-12-21T07:12:09.688Z,98.20
2018-12-21T07:14:38.849Z,97.48
2018-12-21T07:17:08.078Z,97.48
2018-12-21T07:19:36.604Z,97.87
2018-12-21T07:22:05.163Z,98.15
2018-12-21T07:24:33.806Z,97.87
2018-12-21T07:27:02.534Z,97.91
2018-12-21T07:29:31.037Z,98.30
2018-12-21T07:32:00.167Z,98.64
2018-12-21T07:34:28.781Z,98.39
2018-12-21T07:36:57.271Z,98.35
2018-12-21T07:39:25.736Z,97.70
2018-12-21T07:41:54.257Z,97.72
2018-12-21T07:44:22.746Z,98.04
2018-12-21T07:46:51.166Z,98.78
2018-12-21T07:49:19.625Z,98.76
2018-12-21T07:51:48.211Z,98.61
2018-12-21T07:54:16.826Z,98.70
2018-12-21T07:56:45.311Z,98.45
2018-12-21T07:59:14.907Z,97.50
2018-12-21T08:01:43.392Z,98.10
2018-12-21T08:04:11.992Z,98.01
2018-12-21T08:06:41.760Z,98.14
2018-12-21T08:09:10.317Z,98.16
2018-12-21T08:11:38.776Z,97.44
2018-12-21T08:14:08.232Z,97.19
2018-12-21T08:16:36.780Z,97.62
2018-12-21T08:19:05.374Z,98.10
2018-12-21T08:21:33.904Z,98.66
2018-12-21T08:24:02.424Z,98.76
2018-12-21T08:26:30.896Z,97.97
2018-12-21T08:29:00.049Z,97.93
2018-12-21T08:31:28.640Z,98.10
2018-12-21T08:33:57.261Z,98.08
2018-12-21T08:36:25.844Z,98.32
2018-12-21T08:38:55.037Z,97.52
2018-12-21T08:41:23.545Z,98.06
2018-12-21T08:43:52.084Z,98.14
2018-12-21T08:46:21.603Z,98.50
2018-12-21T08:48:52.831Z,98.40
2018-12-21T08:51:21.509Z,98.86
2018-12-21T08:53:52.619Z,99.57
2018-12-21T08:56:20.734Z,99.55
2018-12-21T08:58:49.159Z,99.03
2018-12-21T09:01:17.661Z,99.10
2018-12-21T09:03:46.165Z,99.14
2018-12-21T09:06:18.555Z,98.47
2018-12-21T09:08:45.233Z,98.73
2018-12-21T09:11:13.831Z,98.60
2018-12-21T09:13:42.352Z,99.04
2018-12-21T09:16:11.444Z,98.86
2018-12-21T09:18:39.930Z,98.59
2018-12-21T09:21:08.500Z,98.05
2018-12-21T09:23:38.076Z,98.02
2018-12-21T09:26:06.635Z,97.98
2018-12-21T09:28:36.586Z,98.33
2018-12-21T09:31:05.121Z,97.95
2018-12-21T09:33:33.792Z,98.90
2018-12-21T09:36:02.324Z,98.14
2018-12-21T09:38:30.843Z,98.34
2018-12-21T09:40:59.391Z,98.03
2018-12-21T09:43:27.910Z,98.54
2018-12-21T09:45:56.503Z,98.10
2018-12-21T09:48:25.008Z,98.16
2018-12-21T09:50:55.154Z,98.01
2018-12-21T09:53:23.701Z,98.02
2018-12-21T09:55:52.280Z,97.50
2018-12-21T09:58:21.106Z,97.87
2018-12-21T10:00:49.769Z,97.82
2018-12-21T10:03:18.460Z,98.17
2018-12-21T10:05:47.036Z,97.61
2018-12-21T10:08:16.336Z,97.92
2018-12-21T10:10:44.943Z,97.79
2018-12-21T10:13:13.404Z,97.79
2018-12-21T10:15:41.974Z,97.90
2018-12-21T10:18:10.565Z,97.52
2018-12-21T10:20:39.747Z,97.30
2018-12-21T10:23:08.852Z,97.87
2018-12-21T10:25:38.402Z,97.45
2018-12-21T10:28:07.028Z,97.93
2018-12-21T10:30:36.818Z,98.33
2018-12-21T10:33:05.348Z,99.08
2018-12-21T10:35:34.003Z,99.64
2018-12-21T10:38:02.583Z,99.43
2018-12-21T10:40:31.086Z,99.29
2018-12-21T10:42:59.742Z,99.13
2018-12-21T10:45:28.815Z,99.47
2018-12-21T10:48:00.103Z,100.00
2018-12-21T10:50:29.029Z,99.65
2018-12-21T10:52:58.359Z,99.47
2018-12-21T10:55:27.024Z,99.96
2018-12-21T10:57:55.662Z,100.00
2018-12-21T11:00:24.303Z,100.00
2018-12-21T11:02:53.383Z,100.00
2018-12-21T11:05:23.565Z,99.57
2018-12-21T11:07:52.137Z,99.87
2018-12-21T11:10:20.749Z,99.84
2018-12-21T11:12:49.417Z,100.00
2018-12-21T11:15:18.316Z,100.00
2018-12-21T11:17:47.024Z,99.50
2018-12-21T11:20:17.603Z,100.00
2018-12-21T11:22:47.214Z,99.95
2018-12-21T11:25:16.284Z,100.00
2018-12-21T11:27:45.400Z,100.00
2018-12-21T11:30:14.013Z,100.00
2018-12-21T11:32:43.186Z,99.70
2018-12-21T11:35:11.715Z,99.81
2018-12-21T11:37:40.245Z,99.23
2018-12-21T11:40:08.710Z,99.40
2018-12-21T11:42:37.544Z,99.37
2018-12-21T11:45:08.092Z,99.26
2018-12-21T11:47:37.527Z,99.30
2018-12-21T11:50:08.180Z,100.00
2018-12-21T11:52:37.792Z,100.00
2018-12-21T11:55:07.132Z,100.00
2018-12-21T11:57:36.608Z,99.33
2018-12-21T12:00:05.998Z,99.15
2018-12-21T12:02:34.617Z,100.00
2018-12-21T12:05:03.234Z,100.00
2018-12-21T12:07:32.514Z,100.00
2018-12-21T12:10:01.020Z,99.98
2018-12-21T12:12:29.521Z,100.00
2018-12-21T12:14:58.028Z,99.89
2018-12-21T12:17:27.142Z,100.00
2018-12-21T12:19:56.224Z,100.00
2018-12-21T12:22:25.598Z,100.00
2018-12-21T12:24:55.449Z,100.00
2018-12-21T12:27:24.274Z,99.69
2018-12-21T12:29:52.805Z,100.00
2018-12-21T12:32:21.282Z,100.00
2018-12-21T12:34:50.549Z,100.00
2018-12-21T12:37:19.152Z,100.00
2018-12-21T12:39:47.681Z,100.00
2018-12-21T12:42:16.236Z,100.00
2018-12-21T12:44:45.311Z,100.00
2018-12-21T12:47:14.446Z,100.00
2018-12-21T12:49:42.947Z,100.00
2018-12-21T12:52:11.989Z,100.00
2018-12-21T12:54:40.527Z,100.00
2018-12-21T12:57:09.111Z,100.00
2018-12-21T12:59:37.662Z,100.00
2018-12-21T13:02:06.227Z,100.00
2018-12-21T13:07:18.430Z,100.00
2018-12-21T13:09:47.048Z,100.00
2018-12-21T13:12:15.658Z,100.00
2018-12-21T13:14:44.959Z,100.00
2018-12-21T13:17:13.676Z,100.00
2018-12-21T13:19:42.521Z,100.00
2018-12-21T13:22:11.260Z,100.00
2018-12-21T13:24:39.911Z,100.00
2018-12-21T13:27:09.036Z,100.00
2018-12-21T13:29:37.685Z,100.00
2018-12-21T13:32:07.889Z,100.00
2018-12-21T13:34:36.507Z,100.00
2018-12-21T13:37:05.125Z,100.00
2018-12-21T13:39:33.851Z,100.00
2018-12-21T13:42:03.425Z,100.00
2018-12-21T13:44:32.130Z,100.00
2018-12-21T13:47:00.634Z,100.00
2018-12-21T13:49:31.274Z,100.00
2018-12-21T13:51:59.931Z,100.00
2018-12-21T13:54:29.257Z,100.00
2018-12-21T13:56:57.821Z,100.00
2018-12-21T13:59:26.437Z,100.00
2018-12-21T14:01:55.117Z,100.00
2018-12-21T14:04:24.054Z,100.00
2018-12-21T14:06:52.494Z,100.00
2018-12-21T14:09:21.337Z,100.00
2018-12-21T14:11:49.829Z,100.00
2018-12-21T14:14:19.332Z,100.00
2018-12-21T14:16:48.014Z,100.00
2018-12-21T14:19:19.004Z,100.00
2018-12-21T14:21:48.226Z,100.00
2018-12-21T14:24:18.432Z,100.00
2018-12-21T14:26:47.227Z,100.00
2018-12-21T14:29:17.037Z,100.00
2018-12-21T14:31:45.786Z,100.00
2018-12-21T14:34:14.604Z,100.00
2018-12-21T14:36:43.344Z,100.00
2018-12-21T14:39:12.075Z,100.00
2018-12-21T14:41:41.349Z,100.00
2018-12-21T14:44:11.453Z,100.00
2018-12-21T14:46:40.647Z,100.00
2018-12-21T14:49:09.372Z,100.00
2018-12-21T14:51:38.159Z,100.00
2018-12-21T14:54:06.960Z,100.00
2018-12-21T14:56:37.563Z,100.00
2018-12-21T14:59:06.326Z,100.00
2018-12-21T15:01:35.022Z,100.00
2018-12-21T15:04:03.734Z,100.00
2018-12-21T15:06:32.307Z,100.00
2018-12-21T15:09:02.002Z,100.00
2018-12-21T15:11:31.352Z,100.00
2018-12-21T15:14:01.032Z,100.00
2018-12-21T15:16:29.806Z,100.00
2018-12-21T15:18:58.714Z,100.00
2018-12-21T15:21:27.587Z,100.00
2018-12-21T15:23:57.336Z,100.00
2018-12-21T15:26:26.429Z,100.00
2018-12-21T15:28:55.064Z,100.00
2018-12-21T15:31:24.542Z,100.00
2018-12-21T15:33:53.154Z,100.00
2018-12-21T15:36:21.864Z,100.00
2018-12-21T15:38:51.138Z,100.00
2018-12-21T15:41:19.709Z,100.00
2018-12-21T15:43:48.856Z,100.00
2018-12-21T15:46:17.566Z,100.00
2018-12-21T15:48:46.819Z,100.00
2018-12-21T15:51:15.504Z,100.00
2018-12-21T15:53:44.909Z,100.00
2018-12-21T15:56:13.781Z,100.00
2018-12-21T15:58:42.794Z,100.00
2018-12-21T16:01:11.484Z,100.00
2018-12-21T16:03:40.434Z,100.00
2018-12-21T16:06:09.054Z,100.00
2018-12-21T16:08:38.703Z,100.00
2018-12-21T16:11:07.344Z,100.00
2018-12-21T16:13:37.367Z,100.00
2018-12-21T16:16:05.929Z,100.00
2018-12-21T16:18:34.417Z,100.00
2018-12-21T16:21:03.089Z,100.00
2018-12-21T16:23:32.454Z,100.00
2018-12-21T16:26:14.890Z,100.00
2018-12-21T16:28:57.949Z,100.00
2018-12-21T16:31:38.595Z,100.00
2018-12-21T16:34:25.833Z,100.00
2018-12-21T16:37:10.527Z,100.00
2018-12-21T16:39:54.168Z,100.00
2018-12-21T16:42:39.527Z,100.00
2018-12-21T16:45:10.686Z,100.00
2018-12-21T16:47:39.358Z,100.00
2018-12-21T16:50:12.026Z,100.00
2018-12-21T16:52:40.603Z,100.00
2018-12-21T16:55:09.741Z,100.00
2018-12-21T16:57:40.083Z,100.00
2018-12-21T17:00:13.627Z,100.00
2018-12-21T17:02:42.213Z,100.00
2018-12-21T17:05:12.820Z,100.00
2018-12-21T17:07:42.340Z,100.00
2018-12-21T17:10:21.121Z,100.00
2018-12-21T17:12:49.857Z,100.00
2018-12-21T17:15:23.932Z,100.00
2018-12-21T17:17:53.523Z,100.00
2018-12-21T17:20:22.314Z,100.00
2018-12-21T17:22:51.049Z,100.00
2018-12-21T17:25:26.266Z,100.00
2018-12-21T17:28:03.377Z,100.00
2018-12-21T17:30:32.474Z,100.00
2018-12-21T17:33:01.640Z,100.00
2018-12-21T17:35:31.243Z,100.00
2018-12-21T17:37:59.725Z,100.00
2018-12-21T17:40:28.478Z,100.00
2018-12-21T17:42:57.825Z,100.00
2018-12-21T17:45:27.900Z,100.00
2018-12-21T17:48:01.145Z,100.00
2018-12-21T17:50:43.206Z,100.00
2018-12-21T17:53:11.847Z,100.00
2018-12-21T17:55:42.849Z,100.00
2018-12-21T17:58:14.204Z,100.00
2018-12-21T18:00:44.578Z,100.00
2018-12-21T18:03:24.519Z,100.00
2018-12-21T18:06:00.966Z,100.00
2018-12-21T18:08:30.295Z,100.00
2018-12-21T18:11:01.555Z,100.00
2018-12-21T18:13:32.721Z,100.00
2018-12-21T18:16:01.912Z,100.00
2018-12-21T18:18:31.701Z,100.00
2018-12-21T18:21:01.378Z,100.00
2018-12-21T18:23:31.946Z,100.00
2018-12-21T18:26:02.568Z,100.00
2018-12-21T18:28:31.669Z,100.00
2018-12-21T18:31:30.250Z,100.00
2018-12-21T18:34:09.850Z,100.00
2018-12-21T18:36:38.946Z,100.00
2018-12-21T18:39:07.799Z,100.00
2018-12-21T18:41:37.409Z,100.00
2018-12-21T18:44:06.992Z,100.00
2018-12-21T18:46:35.965Z,100.00
2018-12-21T18:49:05.259Z,100.00
2018-12-21T18:51:33.932Z,100.00
2018-12-21T18:54:02.478Z,100.00
2018-12-21T18:56:32.937Z,100.00
2018-12-21T18:59:01.420Z,100.00
2018-12-21T19:01:29.970Z,100.00
2018-12-21T19:03:58.547Z,100.00
2018-12-21T19:06:27.045Z,100.00
2018-12-21T19:08:56.131Z,100.00
2018-12-21T19:11:24.853Z,100.00
2018-12-21T19:13:53.398Z,100.00
2018-12-21T19:16:22.250Z,100.00
2018-12-21T19:18:50.874Z,100.00
2018-12-21T19:21:19.467Z,100.00
2018-12-21T19:23:47.991Z,100.00
2018-12-21T19:26:16.923Z,100.00
2018-12-21T19:28:45.579Z,100.00
2018-12-21T19:31:15.364Z,100.00
2018-12-21T19:33:43.983Z,100.00
2018-12-21T19:36:12.634Z,99.67
2018-12-21T19:38:41.571Z,100.00
2018-12-21T19:41:11.872Z,99.72
2018-12-21T19:43:40.616Z,100.00
2018-12-21T19:46:09.199Z,99.55
2018-12-21T19:48:37.687Z,99.46
2018-12-21T19:51:06.308Z,99.68
2018-12-21T19:53:34.823Z,98.93
2018-12-21T19:56:10.088Z,99.35
2018-12-21T19:58:39.125Z,99.12
2018-12-21T20:01:08.557Z,99.00
2018-12-21T20:03:37.153Z,99.16
2018-12-21T20:06:06.306Z,99.49
2018-12-21T20:08:34.900Z,99.40
2018-12-21T20:11:04.071Z,99.01
2018-12-21T20:13:34.497Z,99.77
2018-12-21T20:16:03.322Z,99.75
2018-12-21T20:18:31.883Z,100.00
2018-12-21T20:21:00.455Z,99.59
2018-12-21T20:23:30.000Z,99.46
2018-12-21T20:25:58.550Z,99.87
2018-12-21T20:28:27.044Z,99.90
2018-12-21T20:30:55.497Z,100.00
2018-12-21T20:33:24.042Z,100.00
2018-12-21T20:35:52.570Z,100.00
2018-12-21T20:38:21.492Z,100.00
2018-12-21T20:40:50.425Z,100.00
2018-12-21T20:43:20.243Z,99.93
2018-12-21T20:45:48.820Z,100.00
2018-12-21T20:48:17.321Z,99.61
2018-12-21T20:50:45.851Z,99.63
2018-12-21T20:53:15.001Z,98.89
2018-12-21T20:55:43.533Z,99.16
2018-12-21T20:58:25.069Z,99.53
2018-12-21T21:00:53.816Z,99.79
2018-12-21T21:03:22.499Z,99.09
2018-12-21T21:05:51.063Z,98.68
2018-12-21T21:08:19.506Z,99.23
2018-12-21T21:10:49.497Z,99.49
2018-12-21T21:13:19.662Z,99.23
2018-12-21T21:15:48.439Z,99.34
2018-12-21T21:18:19.677Z,99.69
2018-12-21T21:20:48.355Z,99.43
2018-12-21T21:23:17.084Z,99.02
2018-12-21T21:25:45.613Z,99.83
2018-12-21T21:28:14.215Z,99.61
2018-12-21T21:30:43.865Z,99.44
2018-12-21T21:33:13.250Z,99.44
2018-12-21T21:35:41.721Z,99.92
2018-12-21T21:38:11.049Z,99.97
2018-12-21T21:40:40.634Z,100.00
2018-12-21T21:43:12.142Z,100.00
2018-12-21T21:45:40.693Z,100.00
2018-12-21T21:48:09.261Z,99.67
2018-12-21T21:50:37.886Z,99.72
2018-12-21T21:53:06.463Z,99.82
2018-12-21T21:55:35.003Z,100.00
2018-12-21T21:58:04.733Z,100.00
2018-12-21T22:00:34.016Z,100.00
2018-12-21T22:03:02.468Z,99.96
2018-12-21T22:05:31.010Z,99.99
2018-12-21T22:07:59.557Z,99.76
2018-12-21T22:10:28.167Z,99.90
2018-12-21T22:12:56.766Z,100.00
2018-12-21T22:15:25.234Z,99.42
2018-12-21T22:17:53.745Z,99.36
2018-12-21T22:20:22.766Z,99.62
2018-12-21T22:22:51.841Z,99.93
2018-12-21T22:25:20.342Z,100.00
2018-12-21T22:27:49.461Z,100.00
2018-12-21T22:30:18.640Z,100.00
2018-12-21T22:32:47.188Z,100.00
2018-12-21T22:35:15.859Z,100.00
2018-12-21T22:37:45.157Z,100.00
2018-12-21T22:40:14.885Z,99.92
2018-12-21T22:42:44.025Z,100.00
2018-12-21T22:45:12.569Z,99.94
2018-12-21T22:47:41.442Z,99.40
2018-12-21T22:50:09.982Z,99.37
2018-12-21T22:52:39.285Z,98.37
2018-12-21T22:55:08.940Z,99.09
2018-12-21T22:57:37.514Z,98.20
2018-12-21T23:00:10.780Z,98.29
2018-12-21T23:02:39.446Z,99.63
2018-12-21T23:05:07.979Z,99.45
2018-12-21T23:07:36.674Z,99.69
2018-12-21T23:10:06.649Z,99.27
2018-12-21T23:12:35.189Z,99.46
2018-12-21T23:15:03.722Z,99.33
2018-12-21T23:17:32.202Z,100.00
2018-12-21T23:20:00.907Z,100.00
2018-12-21T23:22:29.468Z,100.00
2018-12-21T23:24:58.066Z,100.00
2018-12-21T23:27:26.711Z,100.00
2018-12-21T23:29:55.240Z,100.00
2018-12-21T23:32:23.761Z,100.00
2018-12-21T23:34:52.284Z,100.00
2018-12-21T23:37:21.357Z,100.00
2018-12-21T23:39:50.000Z,100.00
2018-12-21T23:42:18.575Z,100.00
2018-12-21T23:44:47.565Z,100.00
2018-12-21T23:47:16.098Z,100.00
2018-12-21T23:49:45.195Z,100.00
2018-12-21T23:52:13.757Z,100.00
2018-12-21T23:54:42.230Z,100.00
2018-12-21T23:57:11.246Z,100.00
2018-12-21T23:59:41.469Z,100.00
